sensor_id;sensor_type;location;lat;lon;timestamp;temperature;humidity
11242;DHT22;5678;52.370;9.006;2023-09-19T00:00:39;15.20;99.90
11242;DHT22;5678;52.370;9.006;2023-09-19T00:03:09;15.30;99.90
11242;DHT22;5678;52.370;9.006;2023-09-19T00:05:39;15.30;99.90
11242;DHT22;5678;52.370;9.006;2023-09-19T00:08:10;15.30;99.90
11242;DHT22;5678;52.370;9.006;2023-09-19T00:10:42;15.40;99.90
11242;DHT22;5678;52.370;9.006;2023-09-19T00:13:10;15.30;99.90
11242;DHT22;5678;52.370;9.006;2023-09-19T00:15:45;15.30;99.90
11242;DHT22;5678;52.370;9.006;2023-09-19T00:18:17;15.30;99.90
11242;DHT22;5678;52.370;9.006;2023-09-19T00:20:46;15.20;99.90
11242;DHT22;5678;52.370;9.006;2023-09-19T00:23:14;15.20;99.90
11242;DHT22;5678;52.370;9.006;2023-09-19T00:25:44;15.20;99.90
11242;DHT22;5678;52.370;9.006;2023-09-19T00:28:12;15.20;99.90
11242;DHT22;5678;52.370;9.006;2023-09-19T00:30:42;15.30;99.90
11242;DHT22;5678;52.370;9.006;2023-09-19T00:33:10;15.30;99.90
11242;DHT22;5678;52.370;9.006;2023-09-19T00:35:47;15.20;99.90
11242;DHT22;5678;52.370;9.006;2023-09-19T00:38:15;14.80;99.90
11242;DHT22;5678;52.370;9.006;2023-09-19T00:40:45;15.30;99.90
11242;DHT22;5678;52.370;9.006;2023-09-19T00:43:13;15.30;99.90
11242;DHT22;5678;52.370;9.006;2023-09-19T00:45:44;15.40;99.90
11242;DHT22;5678;52.370;9.006;2023-09-19T00:48:15;15.00;99.90
11242;DHT22;5678;52.370;9.006;2023-09-19T00:50:44;15.10;99.90
11242;DHT22;5678;52.370;9.006;2023-09-19T00:53:18;15.20;99.90
11242;DHT22;5678;52.370;9.006;2023-09-19T00:55:49;15.30;99.90
11242;DHT22;5678;52.370;9.006;2023-09-19T00:58:18;15.20;99.90
11242;DHT22;5678;52.370;9.006;2023-09-19T01:00:48;15.30;99.90
11242;DHT22;5678;52.370;9.006;2023-09-19T01:03:16;15.20;99.90
11242;DHT22;5678;52.370;9.006;2023-09-19T01:05:45;15.20;99.90
11242;DHT22;5678;52.370;9.006;2023-09-19T01:08:13;15.20;99.90
11242;DHT22;5678;52.370;9.006;2023-09-19T01:10:46;15.20;99.90
11242;DHT22;5678;52.370;9.006;2023-09-19T01:13:23;15.40;99.90
11242;DHT22;5678;52.370;9.006;2023-09-19T01:16:01;15.30;99.90
11242;DHT22;5678;52.370;9.006;2023-09-19T01:21:26;15.40;99.90
11242;DHT22;5678;52.370;9.006;2023-09-19T01:24:16;14.60;99.90
11242;DHT22;5678;52.370;9.006;2023-09-19T01:27:21;15.40;99.90
11242;DHT22;5678;52.370;9.006;2023-09-19T01:30:03;15.30;99.90
11242;DHT22;5678;52.370;9.006;2023-09-19T01:32:34;15.30;99.90
11242;DHT22;5678;52.370;9.006;2023-09-19T01:35:05;15.40;99.90
11242;DHT22;5678;52.370;9.006;2023-09-19T01:37:34;15.30;99.90
11242;DHT22;5678;52.370;9.006;2023-09-19T01:40:07;15.40;99.90
11242;DHT22;5678;52.370;9.006;2023-09-19T01:42:45;15.40;99.90
11242;DHT22;5678;52.370;9.006;2023-09-19T01:45:23;15.40;99.90
11242;DHT22;5678;52.370;9.006;2023-09-19T01:47:54;15.30;99.90
11242;DHT22;5678;52.370;9.006;2023-09-19T01:50:29;15.30;79.60
11242;DHT22;5678;52.370;9.006;2023-09-19T01:53:02;15.30;43.60
11242;DHT22;5678;52.370;9.006;2023-09-19T01:55:37;15.20;12.10
11242;DHT22;5678;52.370;9.006;2023-09-19T01:58:16;15.20;4.80
11242;DHT22;5678;52.370;9.006;2023-09-19T02:00:48;15.60;4.00
11242;DHT22;5678;52.370;9.006;2023-09-19T02:03:18;14.80;1.00
11242;DHT22;5678;52.370;9.006;2023-09-19T02:05:50;15.80;1.00
11242;DHT22;5678;52.370;9.006;2023-09-19T02:08:19;15.10;1.00
11242;DHT22;5678;52.370;9.006;2023-09-19T02:10:47;15.00;1.00
11242;DHT22;5678;52.370;9.006;2023-09-19T02:13:16;15.10;1.00
11242;DHT22;5678;52.370;9.006;2023-09-19T02:15:47;15.00;1.00
11242;DHT22;5678;52.370;9.006;2023-09-19T02:18:15;14.90;1.00
11242;DHT22;5678;52.370;9.006;2023-09-19T02:20:43;15.00;1.00
11242;DHT22;5678;52.370;9.006;2023-09-19T02:23:12;15.00;1.00
11242;DHT22;5678;52.370;9.006;2023-09-19T02:25:42;14.90;1.00
11242;DHT22;5678;52.370;9.006;2023-09-19T02:28:10;14.80;1.00
11242;DHT22;5678;52.370;9.006;2023-09-19T02:30:39;14.90;1.00
11242;DHT22;5678;52.370;9.006;2023-09-19T02:33:08;15.10;1.00
11242;DHT22;5678;52.370;9.006;2023-09-19T02:35:36;14.80;1.00
11242;DHT22;5678;52.370;9.006;2023-09-19T02:38:04;14.70;1.00
11242;DHT22;5678;52.370;9.006;2023-09-19T02:40:33;15.00;1.00
11242;DHT22;5678;52.370;9.006;2023-09-19T02:43:03;15.00;1.00
11242;DHT22;5678;52.370;9.006;2023-09-19T02:45:31;15.00;1.00
11242;DHT22;5678;52.370;9.006;2023-09-19T02:48:00;15.00;1.00
11242;DHT22;5678;52.370;9.006;2023-09-19T02:50:30;15.00;1.00
11242;DHT22;5678;52.370;9.006;2023-09-19T02:52:58;15.00;1.00
11242;DHT22;5678;52.370;9.006;2023-09-19T02:55:26;15.30;1.00
11242;DHT22;5678;52.370;9.006;2023-09-19T02:57:54;15.00;1.00
11242;DHT22;5678;52.370;9.006;2023-09-19T03:00:23;15.00;1.00
11242;DHT22;5678;52.370;9.006;2023-09-19T03:02:54;15.00;1.00
11242;DHT22;5678;52.370;9.006;2023-09-19T03:05:23;15.20;1.00
11242;DHT22;5678;52.370;9.006;2023-09-19T03:07:52;15.00;1.00
11242;DHT22;5678;52.370;9.006;2023-09-19T03:10:22;15.00;1.00
11242;DHT22;5678;52.370;9.006;2023-09-19T03:12:52;15.00;1.00
11242;DHT22;5678;52.370;9.006;2023-09-19T03:15:20;15.00;1.00
11242;DHT22;5678;52.370;9.006;2023-09-19T03:17:49;14.70;1.00
11242;DHT22;5678;52.370;9.006;2023-09-19T03:20:19;14.60;1.00
11242;DHT22;5678;52.370;9.006;2023-09-19T03:22:48;14.70;1.00
11242;DHT22;5678;52.370;9.006;2023-09-19T03:25:17;14.90;1.00
11242;DHT22;5678;52.370;9.006;2023-09-19T03:27:46;15.00;1.00
11242;DHT22;5678;52.370;9.006;2023-09-19T03:30:14;15.00;1.00
11242;DHT22;5678;52.370;9.006;2023-09-19T03:32:47;15.00;1.00
11242;DHT22;5678;52.370;9.006;2023-09-19T03:35:17;15.00;1.00
11242;DHT22;5678;52.370;9.006;2023-09-19T03:37:46;15.00;1.00
11242;DHT22;5678;52.370;9.006;2023-09-19T03:40:14;14.90;1.00
11242;DHT22;5678;52.370;9.006;2023-09-19T03:42:45;14.80;1.00
11242;DHT22;5678;52.370;9.006;2023-09-19T03:45:13;14.80;1.00
11242;DHT22;5678;52.370;9.006;2023-09-19T03:47:42;14.70;1.00
11242;DHT22;5678;52.370;9.006;2023-09-19T03:50:10;14.70;1.00
11242;DHT22;5678;52.370;9.006;2023-09-19T03:52:39;14.60;1.00
11242;DHT22;5678;52.370;9.006;2023-09-19T03:55:07;14.40;1.00
11242;DHT22;5678;52.370;9.006;2023-09-19T03:57:36;14.50;1.00
11242;DHT22;5678;52.370;9.006;2023-09-19T04:00:07;14.50;1.00
11242;DHT22;5678;52.370;9.006;2023-09-19T04:02:38;14.30;1.00
11242;DHT22;5678;52.370;9.006;2023-09-19T04:05:07;14.50;1.00
11242;DHT22;5678;52.370;9.006;2023-09-19T04:07:36;14.40;1.00
11242;DHT22;5678;52.370;9.006;2023-09-19T04:10:05;14.40;1.00
11242;DHT22;5678;52.370;9.006;2023-09-19T04:12:35;14.30;1.00
11242;DHT22;5678;52.370;9.006;2023-09-19T04:15:05;14.30;1.00
11242;DHT22;5678;52.370;9.006;2023-09-19T04:17:33;14.20;1.00
11242;DHT22;5678;52.370;9.006;2023-09-19T04:20:02;14.20;1.00
11242;DHT22;5678;52.370;9.006;2023-09-19T04:22:33;14.30;1.00
11242;DHT22;5678;52.370;9.006;2023-09-19T04:25:02;14.10;1.00
11242;DHT22;5678;52.370;9.006;2023-09-19T04:27:30;14.20;1.00
11242;DHT22;5678;52.370;9.006;2023-09-19T04:29:58;14.20;1.00
11242;DHT22;5678;52.370;9.006;2023-09-19T04:32:29;14.10;1.00
11242;DHT22;5678;52.370;9.006;2023-09-19T04:34:59;13.70;1.00
11242;DHT22;5678;52.370;9.006;2023-09-19T04:37:28;14.10;1.00
11242;DHT22;5678;52.370;9.006;2023-09-19T04:39:56;14.20;1.00
11242;DHT22;5678;52.370;9.006;2023-09-19T04:42:24;14.10;1.00
11242;DHT22;5678;52.370;9.006;2023-09-19T04:44:52;14.20;1.00
11242;DHT22;5678;52.370;9.006;2023-09-19T04:47:21;14.20;1.00
11242;DHT22;5678;52.370;9.006;2023-09-19T04:49:50;14.30;1.00
11242;DHT22;5678;52.370;9.006;2023-09-19T04:52:18;14.30;1.00
11242;DHT22;5678;52.370;9.006;2023-09-19T04:54:47;14.20;1.00
11242;DHT22;5678;52.370;9.006;2023-09-19T04:57:15;14.00;1.00
11242;DHT22;5678;52.370;9.006;2023-09-19T04:59:43;14.20;1.00
11242;DHT22;5678;52.370;9.006;2023-09-19T05:02:11;14.10;1.00
11242;DHT22;5678;52.370;9.006;2023-09-19T05:04:40;14.10;1.00
11242;DHT22;5678;52.370;9.006;2023-09-19T05:07:09;14.10;1.00
11242;DHT22;5678;52.370;9.006;2023-09-19T05:09:38;14.00;1.00
11242;DHT22;5678;52.370;9.006;2023-09-19T05:12:07;14.00;1.00
11242;DHT22;5678;52.370;9.006;2023-09-19T05:14:37;14.00;1.00
11242;DHT22;5678;52.370;9.006;2023-09-19T05:17:07;14.00;1.00
11242;DHT22;5678;52.370;9.006;2023-09-19T05:19:35;14.10;1.00
11242;DHT22;5678;52.370;9.006;2023-09-19T05:22:03;13.80;1.00
11242;DHT22;5678;52.370;9.006;2023-09-19T05:24:34;13.90;1.00
11242;DHT22;5678;52.370;9.006;2023-09-19T05:27:03;13.70;1.00
11242;DHT22;5678;52.370;9.006;2023-09-19T05:29:31;13.90;1.00
11242;DHT22;5678;52.370;9.006;2023-09-19T05:32:00;13.90;1.00
11242;DHT22;5678;52.370;9.006;2023-09-19T05:34:28;13.90;1.00
11242;DHT22;5678;52.370;9.006;2023-09-19T05:36:57;13.90;1.00
11242;DHT22;5678;52.370;9.006;2023-09-19T05:39:25;13.90;1.00
11242;DHT22;5678;52.370;9.006;2023-09-19T05:41:54;14.00;1.00
11242;DHT22;5678;52.370;9.006;2023-09-19T05:44:23;14.00;1.00
11242;DHT22;5678;52.370;9.006;2023-09-19T05:46:51;13.90;1.00
11242;DHT22;5678;52.370;9.006;2023-09-19T05:49:23;13.90;1.00
11242;DHT22;5678;52.370;9.006;2023-09-19T05:51:52;13.90;1.00
11242;DHT22;5678;52.370;9.006;2023-09-19T05:54:22;13.50;1.00
11242;DHT22;5678;52.370;9.006;2023-09-19T05:56:50;13.70;1.00
11242;DHT22;5678;52.370;9.006;2023-09-19T05:59:20;13.90;1.00
11242;DHT22;5678;52.370;9.006;2023-09-19T06:01:49;13.70;1.00
11242;DHT22;5678;52.370;9.006;2023-09-19T06:04:19;13.90;1.00
11242;DHT22;5678;52.370;9.006;2023-09-19T06:06:48;13.90;1.00
11242;DHT22;5678;52.370;9.006;2023-09-19T06:09:16;14.00;1.00
11242;DHT22;5678;52.370;9.006;2023-09-19T06:11:44;14.00;1.00
11242;DHT22;5678;52.370;9.006;2023-09-19T06:14:12;14.00;1.00
11242;DHT22;5678;52.370;9.006;2023-09-19T06:16:41;14.10;1.00
11242;DHT22;5678;52.370;9.006;2023-09-19T06:19:10;14.10;1.00
11242;DHT22;5678;52.370;9.006;2023-09-19T06:21:39;14.10;1.00
11242;DHT22;5678;52.370;9.006;2023-09-19T06:24:07;14.20;1.00
11242;DHT22;5678;52.370;9.006;2023-09-19T06:26:35;14.20;1.00
11242;DHT22;5678;52.370;9.006;2023-09-19T06:29:03;13.90;1.00
11242;DHT22;5678;52.370;9.006;2023-09-19T06:31:34;14.30;1.00
11242;DHT22;5678;52.370;9.006;2023-09-19T06:34:03;14.30;1.00
11242;DHT22;5678;52.370;9.006;2023-09-19T06:36:31;14.70;1.00
11242;DHT22;5678;52.370;9.006;2023-09-19T06:38:59;14.30;1.00
11242;DHT22;5678;52.370;9.006;2023-09-19T06:41:27;14.30;1.00
11242;DHT22;5678;52.370;9.006;2023-09-19T06:43:55;14.40;1.00
11242;DHT22;5678;52.370;9.006;2023-09-19T06:46:23;14.30;1.00
11242;DHT22;5678;52.370;9.006;2023-09-19T06:48:51;14.30;1.00
11242;DHT22;5678;52.370;9.006;2023-09-19T06:51:21;14.30;1.00
11242;DHT22;5678;52.370;9.006;2023-09-19T06:53:49;14.40;1.00
11242;DHT22;5678;52.370;9.006;2023-09-19T06:56:18;14.40;1.00
11242;DHT22;5678;52.370;9.006;2023-09-19T06:58:46;14.40;1.00
11242;DHT22;5678;52.370;9.006;2023-09-19T07:01:14;14.40;99.90
11242;DHT22;5678;52.370;9.006;2023-09-19T07:03:42;14.30;1.00
11242;DHT22;5678;52.370;9.006;2023-09-19T07:06:12;14.40;99.90
11242;DHT22;5678;52.370;9.006;2023-09-19T07:08:41;14.50;99.90
11242;DHT22;5678;52.370;9.006;2023-09-19T07:11:11;14.70;99.90
11242;DHT22;5678;52.370;9.006;2023-09-19T07:13:39;14.80;99.90
11242;DHT22;5678;52.370;9.006;2023-09-19T07:16:07;14.70;99.90
11242;DHT22;5678;52.370;9.006;2023-09-19T07:18:37;14.80;1.00
11242;DHT22;5678;52.370;9.006;2023-09-19T07:21:05;15.00;1.00
11242;DHT22;5678;52.370;9.006;2023-09-19T07:23:32;15.50;1.00
11242;DHT22;5678;52.370;9.006;2023-09-19T07:26:02;15.40;1.00
11242;DHT22;5678;52.370;9.006;2023-09-19T07:28:31;15.60;99.90
11242;DHT22;5678;52.370;9.006;2023-09-19T07:31:02;15.70;1.00
11242;DHT22;5678;52.370;9.006;2023-09-19T07:33:31;15.80;1.00
11242;DHT22;5678;52.370;9.006;2023-09-19T07:35:59;15.90;99.90
11242;DHT22;5678;52.370;9.006;2023-09-19T07:38:28;15.90;1.00
11242;DHT22;5678;52.370;9.006;2023-09-19T07:41:00;15.90;1.00
11242;DHT22;5678;52.370;9.006;2023-09-19T07:43:30;16.00;1.00
11242;DHT22;5678;52.370;9.006;2023-09-19T07:46:03;15.90;1.00
11242;DHT22;5678;52.370;9.006;2023-09-19T07:48:32;16.00;1.00
11242;DHT22;5678;52.370;9.006;2023-09-19T07:51:04;16.00;99.90
11242;DHT22;5678;52.370;9.006;2023-09-19T07:53:34;16.40;1.00
11242;DHT22;5678;52.370;9.006;2023-09-19T07:56:03;16.40;1.00
11242;DHT22;5678;52.370;9.006;2023-09-19T07:58:32;16.00;1.00
11242;DHT22;5678;52.370;9.006;2023-09-19T08:01:04;16.30;99.90
11242;DHT22;5678;52.370;9.006;2023-09-19T08:03:33;16.30;1.00
11242;DHT22;5678;52.370;9.006;2023-09-19T08:06:04;16.60;99.90
11242;DHT22;5678;52.370;9.006;2023-09-19T08:08:32;16.90;99.90
11242;DHT22;5678;52.370;9.006;2023-09-19T08:11:01;17.20;1.00
11242;DHT22;5678;52.370;9.006;2023-09-19T08:13:29;17.40;1.00
11242;DHT22;5678;52.370;9.006;2023-09-19T08:15:59;17.60;1.00
11242;DHT22;5678;52.370;9.006;2023-09-19T08:18:27;17.70;1.00
11242;DHT22;5678;52.370;9.006;2023-09-19T08:20:57;17.70;99.90
11242;DHT22;5678;52.370;9.006;2023-09-19T08:23:25;17.80;99.90
11242;DHT22;5678;52.370;9.006;2023-09-19T08:25:56;18.00;1.00
11242;DHT22;5678;52.370;9.006;2023-09-19T08:28:26;17.80;99.90
11242;DHT22;5678;52.370;9.006;2023-09-19T08:31:03;17.80;3.70
11242;DHT22;5678;52.370;9.006;2023-09-19T08:33:32;18.00;99.90
11242;DHT22;5678;52.370;9.006;2023-09-19T08:36:00;18.00;99.90
11242;DHT22;5678;52.370;9.006;2023-09-19T08:38:31;17.40;99.90
11242;DHT22;5678;52.370;9.006;2023-09-19T08:41:00;18.10;1.00
11242;DHT22;5678;52.370;9.006;2023-09-19T08:43:28;18.20;1.00
11242;DHT22;5678;52.370;9.006;2023-09-19T08:46:03;18.10;1.00
11242;DHT22;5678;52.370;9.006;2023-09-19T08:48:39;18.10;1.00
11242;DHT22;5678;52.370;9.006;2023-09-19T08:51:18;18.20;99.90
11242;DHT22;5678;52.370;9.006;2023-09-19T08:53:51;18.10;1.00
11242;DHT22;5678;52.370;9.006;2023-09-19T08:56:20;18.10;1.00
11242;DHT22;5678;52.370;9.006;2023-09-19T08:58:51;18.20;1.00
11242;DHT22;5678;52.370;9.006;2023-09-19T09:01:21;18.10;1.00
11242;DHT22;5678;52.370;9.006;2023-09-19T09:03:55;18.10;3.50
11242;DHT22;5678;52.370;9.006;2023-09-19T09:06:25;17.90;1.00
11242;DHT22;5678;52.370;9.006;2023-09-19T09:08:55;18.20;28.10
11242;DHT22;5678;52.370;9.006;2023-09-19T09:11:23;18.10;1.00
11242;DHT22;5678;52.370;9.006;2023-09-19T09:13:52;18.20;1.00
11242;DHT22;5678;52.370;9.006;2023-09-19T09:16:20;18.20;1.00
11242;DHT22;5678;52.370;9.006;2023-09-19T09:18:54;18.20;1.00
11242;DHT22;5678;52.370;9.006;2023-09-19T09:21:25;18.00;1.00
11242;DHT22;5678;52.370;9.006;2023-09-19T09:23:53;18.50;1.00
11242;DHT22;5678;52.370;9.006;2023-09-19T09:26:42;17.40;1.00
11242;DHT22;5678;52.370;9.006;2023-09-19T09:29:10;18.70;1.00
11242;DHT22;5678;52.370;9.006;2023-09-19T09:31:41;19.10;1.00
11242;DHT22;5678;52.370;9.006;2023-09-19T09:34:12;18.90;99.90
11242;DHT22;5678;52.370;9.006;2023-09-19T09:36:41;18.90;1.00
11242;DHT22;5678;52.370;9.006;2023-09-19T09:39:10;18.90;99.90
11242;DHT22;5678;52.370;9.006;2023-09-19T09:41:46;19.00;99.90
11242;DHT22;5678;52.370;9.006;2023-09-19T09:44:15;19.00;99.90
11242;DHT22;5678;52.370;9.006;2023-09-19T09:46:45;19.00;99.90
11242;DHT22;5678;52.370;9.006;2023-09-19T09:49:47;19.10;99.90
11242;DHT22;5678;52.370;9.006;2023-09-19T09:52:21;19.20;99.90
11242;DHT22;5678;52.370;9.006;2023-09-19T09:55:02;19.10;99.90
11242;DHT22;5678;52.370;9.006;2023-09-19T09:57:33;19.90;99.90
11242;DHT22;5678;52.370;9.006;2023-09-19T10:00:03;19.30;99.90
11242;DHT22;5678;52.370;9.006;2023-09-19T10:02:46;20.50;99.90
11242;DHT22;5678;52.370;9.006;2023-09-19T10:05:17;19.70;99.90
11242;DHT22;5678;52.370;9.006;2023-09-19T10:07:55;19.90;1.00
11242;DHT22;5678;52.370;9.006;2023-09-19T10:10:31;19.90;1.00
11242;DHT22;5678;52.370;9.006;2023-09-19T10:13:12;19.80;1.00
11242;DHT22;5678;52.370;9.006;2023-09-19T10:15:43;19.60;1.00
11242;DHT22;5678;52.370;9.006;2023-09-19T10:18:20;19.60;32.30
11242;DHT22;5678;52.370;9.006;2023-09-19T10:20:49;19.80;99.90
11242;DHT22;5678;52.370;9.006;2023-09-19T10:23:18;20.60;20.30
11242;DHT22;5678;52.370;9.006;2023-09-19T10:25:50;20.20;1.00
11242;DHT22;5678;52.370;9.006;2023-09-19T10:28:19;20.70;1.00
11242;DHT22;5678;52.370;9.006;2023-09-19T10:30:50;20.50;1.00
11242;DHT22;5678;52.370;9.006;2023-09-19T10:33:20;20.30;1.00
11242;DHT22;5678;52.370;9.006;2023-09-19T10:35:51;20.50;1.00
11242;DHT22;5678;52.370;9.006;2023-09-19T10:38:20;20.80;1.00
11242;DHT22;5678;52.370;9.006;2023-09-19T10:40:51;20.60;1.00
11242;DHT22;5678;52.370;9.006;2023-09-19T10:43:21;20.90;1.00
11242;DHT22;5678;52.370;9.006;2023-09-19T10:45:50;20.60;1.00
11242;DHT22;5678;52.370;9.006;2023-09-19T10:48:20;20.50;1.00
11242;DHT22;5678;52.370;9.006;2023-09-19T10:51:02;19.90;1.00
11242;DHT22;5678;52.370;9.006;2023-09-19T10:53:43;20.40;1.00
11242;DHT22;5678;52.370;9.006;2023-09-19T10:56:18;20.80;1.00
11242;DHT22;5678;52.370;9.006;2023-09-19T10:58:47;21.00;1.00
11242;DHT22;5678;52.370;9.006;2023-09-19T11:01:16;20.90;1.00
11242;DHT22;5678;52.370;9.006;2023-09-19T11:03:45;21.10;1.00
11242;DHT22;5678;52.370;9.006;2023-09-19T11:06:17;21.10;1.00
11242;DHT22;5678;52.370;9.006;2023-09-19T11:08:59;21.00;1.00
11242;DHT22;5678;52.370;9.006;2023-09-19T11:11:45;20.80;1.00
11242;DHT22;5678;52.370;9.006;2023-09-19T11:14:40;20.70;1.00
11242;DHT22;5678;52.370;9.006;2023-09-19T11:17:42;20.70;1.00
11242;DHT22;5678;52.370;9.006;2023-09-19T11:20:25;20.50;1.00
11242;DHT22;5678;52.370;9.006;2023-09-19T11:23:20;20.50;1.00
11242;DHT22;5678;52.370;9.006;2023-09-19T11:25:55;20.50;1.00
11242;DHT22;5678;52.370;9.006;2023-09-19T11:28:33;20.60;1.00
11242;DHT22;5678;52.370;9.006;2023-09-19T11:31:41;20.70;1.00
11242;DHT22;5678;52.370;9.006;2023-09-19T11:34:38;20.90;1.00
11242;DHT22;5678;52.370;9.006;2023-09-19T11:40:10;20.70;1.00
11242;DHT22;5678;52.370;9.006;2023-09-19T11:42:43;20.70;1.00
11242;DHT22;5678;52.370;9.006;2023-09-19T11:48:24;20.70;1.00
11242;DHT22;5678;52.370;9.006;2023-09-19T11:50:53;21.20;1.00
11242;DHT22;5678;52.370;9.006;2023-09-19T11:53:24;20.90;1.00
11242;DHT22;5678;52.370;9.006;2023-09-19T11:56:00;21.30;1.00
11242;DHT22;5678;52.370;9.006;2023-09-19T11:58:30;20.80;1.00
11242;DHT22;5678;52.370;9.006;2023-09-19T12:01:00;21.10;1.00
11242;DHT22;5678;52.370;9.006;2023-09-19T12:03:36;20.80;1.00
11242;DHT22;5678;52.370;9.006;2023-09-19T12:06:11;20.90;1.00
11242;DHT22;5678;52.370;9.006;2023-09-19T12:08:41;20.90;1.00
11242;DHT22;5678;52.370;9.006;2023-09-19T12:11:16;20.70;1.00
11242;DHT22;5678;52.370;9.006;2023-09-19T12:13:45;20.80;1.00
11242;DHT22;5678;52.370;9.006;2023-09-19T12:16:14;20.60;1.00
11242;DHT22;5678;52.370;9.006;2023-09-19T12:18:44;20.70;1.00
11242;DHT22;5678;52.370;9.006;2023-09-19T12:21:23;21.30;1.00
11242;DHT22;5678;52.370;9.006;2023-09-19T12:24:07;20.80;1.00
11242;DHT22;5678;52.370;9.006;2023-09-19T12:26:42;20.90;1.00
11242;DHT22;5678;52.370;9.006;2023-09-19T12:29:12;20.70;1.00
11242;DHT22;5678;52.370;9.006;2023-09-19T12:31:54;20.80;1.00
11242;DHT22;5678;52.370;9.006;2023-09-19T12:34:25;20.80;1.00
11242;DHT22;5678;52.370;9.006;2023-09-19T12:37:08;20.80;1.00
11242;DHT22;5678;52.370;9.006;2023-09-19T12:39:40;21.00;1.00
11242;DHT22;5678;52.370;9.006;2023-09-19T12:42:12;20.90;1.00
11242;DHT22;5678;52.370;9.006;2023-09-19T12:44:42;21.30;1.00
11242;DHT22;5678;52.370;9.006;2023-09-19T12:47:13;21.30;1.00
11242;DHT22;5678;52.370;9.006;2023-09-19T12:50:13;21.10;1.00
11242;DHT22;5678;52.370;9.006;2023-09-19T12:52:46;20.80;1.00
11242;DHT22;5678;52.370;9.006;2023-09-19T12:55:23;20.80;1.00
11242;DHT22;5678;52.370;9.006;2023-09-19T12:58:12;20.80;1.00
11242;DHT22;5678;52.370;9.006;2023-09-19T13:00:42;21.30;1.00
11242;DHT22;5678;52.370;9.006;2023-09-19T13:03:12;20.60;1.00
11242;DHT22;5678;52.370;9.006;2023-09-19T13:05:52;21.10;1.00
11242;DHT22;5678;52.370;9.006;2023-09-19T13:08:24;21.20;1.00
11242;DHT22;5678;52.370;9.006;2023-09-19T13:11:06;21.30;1.00
11242;DHT22;5678;52.370;9.006;2023-09-19T13:13:40;21.50;1.00
11242;DHT22;5678;52.370;9.006;2023-09-19T13:16:11;21.40;1.00
11242;DHT22;5678;52.370;9.006;2023-09-19T13:18:42;21.40;1.00
11242;DHT22;5678;52.370;9.006;2023-09-19T13:21:12;21.30;1.00
11242;DHT22;5678;52.370;9.006;2023-09-19T13:23:52;21.40;1.00
11242;DHT22;5678;52.370;9.006;2023-09-19T13:26:21;21.50;1.00
11242;DHT22;5678;52.370;9.006;2023-09-19T13:28:50;21.60;1.00
11242;DHT22;5678;52.370;9.006;2023-09-19T13:31:19;21.30;1.00
11242;DHT22;5678;52.370;9.006;2023-09-19T13:33:48;21.30;1.00
11242;DHT22;5678;52.370;9.006;2023-09-19T13:36:17;21.10;1.00
11242;DHT22;5678;52.370;9.006;2023-09-19T13:38:45;20.90;1.00
11242;DHT22;5678;52.370;9.006;2023-09-19T13:41:15;21.20;1.00
11242;DHT22;5678;52.370;9.006;2023-09-19T13:43:44;21.00;1.00
11242;DHT22;5678;52.370;9.006;2023-09-19T13:46:17;20.90;1.00
11242;DHT22;5678;52.370;9.006;2023-09-19T13:48:52;20.90;1.00
11242;DHT22;5678;52.370;9.006;2023-09-19T13:51:21;21.20;1.00
11242;DHT22;5678;52.370;9.006;2023-09-19T13:53:50;21.20;1.00
11242;DHT22;5678;52.370;9.006;2023-09-19T13:56:18;21.20;1.00
11242;DHT22;5678;52.370;9.006;2023-09-19T13:58:46;20.10;1.00
11242;DHT22;5678;52.370;9.006;2023-09-19T14:01:14;21.10;1.00
11242;DHT22;5678;52.370;9.006;2023-09-19T14:03:43;21.40;1.00
11242;DHT22;5678;52.370;9.006;2023-09-19T14:06:13;21.10;1.00
11242;DHT22;5678;52.370;9.006;2023-09-19T14:08:41;21.00;1.00
11242;DHT22;5678;52.370;9.006;2023-09-19T14:11:10;20.90;1.00
11242;DHT22;5678;52.370;9.006;2023-09-19T14:13:38;21.10;1.00
11242;DHT22;5678;52.370;9.006;2023-09-19T14:16:07;21.00;1.00
11242;DHT22;5678;52.370;9.006;2023-09-19T14:18:35;20.40;1.00
11242;DHT22;5678;52.370;9.006;2023-09-19T14:21:06;20.40;1.00
11242;DHT22;5678;52.370;9.006;2023-09-19T14:23:36;20.40;1.00
11242;DHT22;5678;52.370;9.006;2023-09-19T14:26:04;20.40;1.00
11242;DHT22;5678;52.370;9.006;2023-09-19T14:28:33;20.20;1.00
11242;DHT22;5678;52.370;9.006;2023-09-19T14:31:04;20.20;1.00
11242;DHT22;5678;52.370;9.006;2023-09-19T14:33:33;20.30;1.00
11242;DHT22;5678;52.370;9.006;2023-09-19T14:36:07;20.20;1.00
11242;DHT22;5678;52.370;9.006;2023-09-19T14:38:36;20.20;1.00
11242;DHT22;5678;52.370;9.006;2023-09-19T14:41:06;20.50;1.00
11242;DHT22;5678;52.370;9.006;2023-09-19T14:43:34;20.80;1.00
11242;DHT22;5678;52.370;9.006;2023-09-19T14:46:03;20.80;1.00
11242;DHT22;5678;52.370;9.006;2023-09-19T14:48:31;21.00;1.00
11242;DHT22;5678;52.370;9.006;2023-09-19T14:51:02;20.60;1.00
11242;DHT22;5678;52.370;9.006;2023-09-19T14:53:32;20.90;1.00
11242;DHT22;5678;52.370;9.006;2023-09-19T14:56:00;21.00;1.00
11242;DHT22;5678;52.370;9.006;2023-09-19T14:58:30;20.80;1.00
11242;DHT22;5678;52.370;9.006;2023-09-19T15:01:05;20.90;1.00
11242;DHT22;5678;52.370;9.006;2023-09-19T15:03:33;21.50;1.00
11242;DHT22;5678;52.370;9.006;2023-09-19T15:06:04;20.50;1.00
11242;DHT22;5678;52.370;9.006;2023-09-19T15:08:35;20.40;1.00
11242;DHT22;5678;52.370;9.006;2023-09-19T15:11:06;20.40;1.00
11242;DHT22;5678;52.370;9.006;2023-09-19T15:13:34;20.40;1.00
11242;DHT22;5678;52.370;9.006;2023-09-19T15:16:03;20.40;1.00
11242;DHT22;5678;52.370;9.006;2023-09-19T15:18:35;20.40;1.00
11242;DHT22;5678;52.370;9.006;2023-09-19T15:21:05;20.30;1.00
11242;DHT22;5678;52.370;9.006;2023-09-19T15:23:35;20.10;1.00
11242;DHT22;5678;52.370;9.006;2023-09-19T15:26:03;20.40;1.00
11242;DHT22;5678;52.370;9.006;2023-09-19T15:28:32;20.70;1.00
11242;DHT22;5678;52.370;9.006;2023-09-19T15:31:01;20.80;1.00
11242;DHT22;5678;52.370;9.006;2023-09-19T15:33:30;19.90;1.00
11242;DHT22;5678;52.370;9.006;2023-09-19T15:36:02;19.90;1.00
11242;DHT22;5678;52.370;9.006;2023-09-19T15:38:32;20.00;1.00
11242;DHT22;5678;52.370;9.006;2023-09-19T15:41:20;19.90;1.00
11242;DHT22;5678;52.370;9.006;2023-09-19T15:43:48;20.90;1.00
11242;DHT22;5678;52.370;9.006;2023-09-19T15:46:16;19.80;1.00
11242;DHT22;5678;52.370;9.006;2023-09-19T15:48:45;20.00;1.00
11242;DHT22;5678;52.370;9.006;2023-09-19T15:51:13;19.80;1.00
11242;DHT22;5678;52.370;9.006;2023-09-19T15:53:43;20.60;1.00
11242;DHT22;5678;52.370;9.006;2023-09-19T15:56:12;19.90;1.00
11242;DHT22;5678;52.370;9.006;2023-09-19T15:58:44;19.80;1.00
11242;DHT22;5678;52.370;9.006;2023-09-19T16:01:12;20.50;1.00
11242;DHT22;5678;52.370;9.006;2023-09-19T16:03:43;19.70;1.00
11242;DHT22;5678;52.370;9.006;2023-09-19T16:06:13;19.70;1.00
11242;DHT22;5678;52.370;9.006;2023-09-19T16:08:41;19.70;1.00
11242;DHT22;5678;52.370;9.006;2023-09-19T16:11:09;19.70;1.00
11242;DHT22;5678;52.370;9.006;2023-09-19T16:13:39;19.90;1.00
11242;DHT22;5678;52.370;9.006;2023-09-19T16:16:09;19.60;1.00
11242;DHT22;5678;52.370;9.006;2023-09-19T16:18:39;20.00;1.00
11242;DHT22;5678;52.370;9.006;2023-09-19T16:21:07;19.40;1.00
11242;DHT22;5678;52.370;9.006;2023-09-19T16:23:36;20.10;1.00
11242;DHT22;5678;52.370;9.006;2023-09-19T16:26:05;19.20;1.00
11242;DHT22;5678;52.370;9.006;2023-09-19T16:28:34;19.90;1.00
11242;DHT22;5678;52.370;9.006;2023-09-19T16:31:03;19.20;1.00